Kuo Chia — BNBE — position and weather

sailwx.info

Track history (hours):
 
Tides and Currents Weather Stations Pressure Air Temp Water Temp Dewpoint Dewpoint Depression Visibility Wind Speed Wind Dir Waves Ship Positions

Kuo Chia

Last reported at 2018-Jul-19 08:53 UTC. Time now 2018-Jul-20 08:45 UTC.
Position N 22°33' E 119°51'.

Length 169 m; draft 8 m.

Type: Ship (hazmat cat A). MMSI: 416363000.

Date/timePositionNaut miles runAvg speedWind from/ knotsBaromVisibWave heightAir tempDewpointWater temp
2018-Jul-19 08:53N 22°33' E 119°51'615.6
2018-Jul-19 08:30N 22°35' E 119°57'815.6
2018-Jul-19 08:00N 22°35' E 120°06'714.8
2018-Jul-19 07:30N 22°33' E 120°13'510.5
2018-Jul-19 07:00N 22°33' E 120°19'0 0.5
2018-Jul-19 06:27N 22°34' E 120°19'0 0.0
2018-Jul-19 05:39N 22°34' E 120°19'0 0.0
2018-Jul-19 05:27N 22°34' E 120°19'0 0.0
2018-Jul-19 04:57N 22°34' E 120°19'0 0.0
2018-Jul-19 04:27N 22°34' E 120°19'0 0.0
2018-Jul-19 03:57N 22°34' E 120°19'0 0.0
2018-Jul-19 02:45N 22°34' E 120°19'0 0.0
2018-Jul-19 02:03N 22°34' E 120°19'0 0.1
2018-Jul-19 01:57N 22°34' E 120°19'0 0.0
2018-Jul-19 01:31N 22°34' E 120°19'3 5.7
2018-Jul-19 01:00N 22°32' E 120°16'2 3.5
2018-Jul-19 00:31N 22°32' E 120°15'3 6.0
2018-Jul-19 00:01N 22°30' E 120°12'1 1.2
2018-Jul-18 23:30N 22°30' E 120°12'1 1.3
2018-Jul-18 23:01N 22°30' E 120°11'4 8.2
2018-Jul-18 22:31N 22°29' E 120°07'4 6.7
2018-Jul-18 21:58N 22°28' E 120°03'1 1.1
2018-Jul-18 21:28N 22°29' E 120°03'0 0.5
2018-Jul-18 20:52N 22°29' E 120°02'0 0.3
2018-Jul-18 20:29N 22°29' E 120°02'0 0.5
2018-Jul-18 19:58N 22°29' E 120°02'0 0.6
2018-Jul-18 19:28N 22°28' E 120°02'0 0.6
2018-Jul-18 18:52N 22°28' E 120°02'0 0.9
2018-Jul-18 18:28N 22°28' E 120°02'1 1.1
2018-Jul-18 17:58N 22°27' E 120°03'0 0.7
2018-Jul-18 17:22N 22°27' E 120°03'1 1.6
2018-Jul-18 16:59N 22°27' E 120°03'611.7
2018-Jul-18 16:29N 22°33' E 120°04'814.7
2018-Jul-18 15:58N 22°40' E 120°06'714.7
2018-Jul-18 15:30N 22°47' E 120°04'  
2018-Jul-14 21:41N 33°39' E 134°42'317.3
2018-Jul-14 21:30N 33°41' E 134°44'1017.0
2018-Jul-14 20:57N 33°49' E 134°51'716.4
2018-Jul-14 20:30N 33°56' E 134°54'816.6
2018-Jul-14 20:00N 34°04' E 134°55'816.3
2018-Jul-14 19:30N 34°12' E 134°57'714.3
2018-Jul-14 19:00N 34°19' E 134°59'816.7
2018-Jul-14 18:30N 34°26' E 135°04'816.0
2018-Jul-14 18:00N 34°32' E 135°11'715.0
2018-Jul-14 17:30N 34°38' E 135°16'3 5.3
2018-Jul-14 17:00N 34°40' E 135°14'0 0.1
2018-Jul-14 16:28N 34°40' E 135°14'0 0.0
2018-Jul-14 15:52N 34°40' E 135°14'0 0.0
2018-Jul-14 15:30N 34°40' E 135°14'0 0.0
2018-Jul-14 14:57N 34°40' E 135°14'0 0.0
2018-Jul-14 14:27N 34°40' E 135°14'0 0.0
2018-Jul-14 13:27N 34°40' E 135°14'0 0.0
2018-Jul-14 12:57N 34°40' E 135°14'0 0.0
2018-Jul-14 12:30N 34°40' E 135°14'0 0.0
2018-Jul-14 11:57N 34°40' E 135°14'0 0.0
2018-Jul-14 11:27N 34°40' E 135°14'0 0.0
2018-Jul-14 10:54N 34°40' E 135°14'0 0.0
2018-Jul-14 10:27N 34°40' E 135°14'0 0.0
2018-Jul-14 09:57N 34°40' E 135°14'0 0.0
2018-Jul-14 09:27N 34°40' E 135°14'0 0.0
2018-Jul-14 08:57N 34°40' E 135°14'0 0.0
2018-Jul-14 08:27N 34°40' E 135°14'0 0.0
2018-Jul-14 08:00N 34°40' E 135°14'2 3.9
2018-Jul-14 07:30N 34°39' E 135°16'5 9.8
2018-Jul-14 07:00N 34°37' E 135°21'3 5.3
2018-Jul-14 06:29N 34°39' E 135°24'0 0.0
2018-Jul-14 05:55N 34°39' E 135°24'0 0.0
2018-Jul-14 05:25N 34°39' E 135°24'0 0.0
2018-Jul-14 04:55N 34°39' E 135°24'0 0.0
2018-Jul-14 04:28N 34°39' E 135°24'0 0.0
2018-Jul-14 03:55N 34°39' E 135°24'0 0.0
2018-Jul-14 03:25N 34°39' E 135°24'0 0.0
2018-Jul-14 02:58N 34°39' E 135°24'0 0.0
2018-Jul-14 02:25N 34°39' E 135°24'0 0.0
2018-Jul-14 01:55N 34°39' E 135°24'0 0.0
2018-Jul-14 01:28N 34°39' E 135°24'0 0.6
2018-Jul-14 01:00N 34°39' E 135°24'4 8.5
2018-Jul-14 00:31N 34°36' E 135°20'714.5
2018-Jul-14 00:00N 34°31' E 135°13'815.1
2018-Jul-13 23:30N 34°26' E 135°07'815.8
2018-Jul-13 23:00N 34°20' E 135°01'815.6
2018-Jul-13 22:30N 34°12' E 134°60'612.0
2018-Jul-13 22:00N 34°06' E 134°60'612.2
2018-Jul-13 21:30N 34°00' E 135°00'612.3
2018-Jul-13 21:01N 33°54' E 135°00'713.5
2018-Jul-13 20:31N 33°47' E 135°01'713.9
2018-Jul-13 20:01N 33°42' E 135°07'612.8
2018-Jul-13 19:31N 33°37' E 135°12'222 4.9
2018-Jul-11 22:15N 34°54' E 139°23'413.5
2018-Jul-11 21:59N 34°56' E 139°27'714.0
2018-Jul-11 21:30N 35°00' E 139°34'714.7
2018-Jul-11 21:00N 35°05' E 139°40'714.6
2018-Jul-11 20:30N 35°11' E 139°46'511.1
2018-Jul-11 20:00N 35°17' E 139°45'612.1
2018-Jul-11 19:30N 35°22' E 139°42'5 9.1
2018-Jul-11 19:01N 35°27' E 139°41'0 0.9
2018-Jul-11 18:29N 35°26' E 139°41'0 0.0
2018-Jul-11 17:59N 35°26' E 139°41'0 0.0
2018-Jul-11 17:23N 35°26' E 139°41'0 0.0
2018-Jul-11 16:59N 35°26' E 139°41'0 0.0
2018-Jul-11 16:29N 35°26' E 139°41'0 0.0
2018-Jul-11 15:59N 35°26' E 139°41'0 0.0
2018-Jul-11 15:29N 35°26' E 139°41'0 0.0
2018-Jul-11 14:59N 35°26' E 139°41'0 0.0
2018-Jul-11 14:29N 35°26' E 139°41'0 0.0
2018-Jul-11 13:58N 35°26' E 139°41'0 0.0
2018-Jul-11 13:28N 35°26' E 139°41'0 0.0
2018-Jul-11 12:58N 35°26' E 139°41'0 0.0
2018-Jul-11 12:28N 35°26' E 139°41'1 1.5
2018-Jul-11 12:01N 35°27' E 139°41'3 5.6
2018-Jul-11 11:31N 35°26' E 139°44'510.6
2018-Jul-11 11:00N 35°29' E 139°50'611.1
2018-Jul-11 10:31N 35°34' E 139°49'4 7.5
2018-Jul-11 10:00N 35°37' E 139°46'0 0.0
2018-Jul-11 08:12N 35°37' E 139°46'0 0.1
2018-Jul-11 07:57N 35°37' E 139°46'0 0.0
2018-Jul-11 07:12N 35°37' E 139°46'0 0.0
2018-Jul-11 06:57N 35°37' E 139°46'0 0.0
2018-Jul-11 05:27N 35°37' E 139°46'0 0.0
2018-Jul-11 04:39N 35°37' E 139°46'0 0.0
2018-Jul-11 04:21N 35°37' E 139°46'0 0.0
2018-Jul-11 04:00N 35°37' E 139°46'0 0.0
2018-Jul-11 01:57N 35°37' E 139°46'0 0.0
2018-Jul-11 01:21N 35°37' E 139°46'0 0.0
2018-Jul-11 00:51N 35°37' E 139°46'0 0.0
2018-Jul-10 22:56N 35°37' E 139°46'2 3.6
2018-Jul-10 22:25N 35°36' E 139°47'4 9.5
2018-Jul-10 22:00N 35°33' E 139°51'5 9.4
2018-Jul-10 21:30N 35°29' E 139°51'713.5
2018-Jul-10 21:00N 35°23' E 139°46'612.2
2018-Jul-10 20:30N 35°17' E 139°45'612.4
2018-Jul-10 20:01N 35°11' E 139°47'5 9.7
2018-Jul-10 19:30N 35°06' E 139°46'510.4
2018-Jul-10 19:00N 35°02' E 139°42'510.1
2018-Jul-10 18:30N 34°59' E 139°37'510.4
2018-Jul-10 18:00N 34°56' E 139°32'4 8.2
2018-Jul-10 17:30N 34°54' E 139°28'813.5
2018-Jul-10 16:55N 34°49' E 139°20'  
Track history (hours):
 
Tides and Currents Weather Stations Pressure Air Temp Water Temp Dewpoint Dewpoint Depression Visibility Wind Speed Wind Dir Waves Ship Positions

Kuo Chia

Last reported at 2018-Jul-19 08:53 UTC. Time now 2018-Jul-20 08:45 UTC.
Position N 22°33' E 119°51'.

Length 169 m; draft 8 m.

Type: Ship (hazmat cat A). MMSI: 416363000.

Date/timePositionNaut miles runAvg speedWind from/ knotsBaromVisibWave heightAir tempDewpointWater temp
2018-Jul-19 08:53N 22°33' E 119°51'615.6
2018-Jul-19 08:30N 22°35' E 119°57'815.6
2018-Jul-19 08:00N 22°35' E 120°06'714.8
2018-Jul-19 07:30N 22°33' E 120°13'510.5
2018-Jul-19 07:00N 22°33' E 120°19'0 0.5
2018-Jul-19 06:27N 22°34' E 120°19'0 0.0
2018-Jul-19 05:39N 22°34' E 120°19'0 0.0
2018-Jul-19 05:27N 22°34' E 120°19'0 0.0
2018-Jul-19 04:57N 22°34' E 120°19'0 0.0
2018-Jul-19 04:27N 22°34' E 120°19'0 0.0
2018-Jul-19 03:57N 22°34' E 120°19'0 0.0
2018-Jul-19 02:45N 22°34' E 120°19'0 0.0
2018-Jul-19 02:03N 22°34' E 120°19'0 0.1
2018-Jul-19 01:57N 22°34' E 120°19'0 0.0
2018-Jul-19 01:31N 22°34' E 120°19'3 5.7
2018-Jul-19 01:00N 22°32' E 120°16'2 3.5
2018-Jul-19 00:31N 22°32' E 120°15'3 6.0
2018-Jul-19 00:01N 22°30' E 120°12'1 1.2
2018-Jul-18 23:30N 22°30' E 120°12'1 1.3
2018-Jul-18 23:01N 22°30' E 120°11'4 8.2
2018-Jul-18 22:31N 22°29' E 120°07'4 6.7
2018-Jul-18 21:58N 22°28' E 120°03'1 1.1
2018-Jul-18 21:28N 22°29' E 120°03'0 0.5
2018-Jul-18 20:52N 22°29' E 120°02'0 0.3
2018-Jul-18 20:29N 22°29' E 120°02'0 0.5
2018-Jul-18 19:58N 22°29' E 120°02'0 0.6
2018-Jul-18 19:28N 22°28' E 120°02'0 0.6
2018-Jul-18 18:52N 22°28' E 120°02'0 0.9
2018-Jul-18 18:28N 22°28' E 120°02'1 1.1
2018-Jul-18 17:58N 22°27' E 120°03'0 0.7
2018-Jul-18 17:22N 22°27' E 120°03'1 1.6
2018-Jul-18 16:59N 22°27' E 120°03'611.7
2018-Jul-18 16:29N 22°33' E 120°04'814.7
2018-Jul-18 15:58N 22°40' E 120°06'714.7
2018-Jul-18 15:30N 22°47' E 120°04'  
2018-Jul-14 21:41N 33°39' E 134°42'317.3
2018-Jul-14 21:30N 33°41' E 134°44'1017.0
2018-Jul-14 20:57N 33°49' E 134°51'716.4
2018-Jul-14 20:30N 33°56' E 134°54'816.6
2018-Jul-14 20:00N 34°04' E 134°55'816.3
2018-Jul-14 19:30N 34°12' E 134°57'714.3
2018-Jul-14 19:00N 34°19' E 134°59'816.7
2018-Jul-14 18:30N 34°26' E 135°04'816.0
2018-Jul-14 18:00N 34°32' E 135°11'715.0
2018-Jul-14 17:30N 34°38' E 135°16'3 5.3
2018-Jul-14 17:00N 34°40' E 135°14'0 0.1
2018-Jul-14 16:28N 34°40' E 135°14'0 0.0
2018-Jul-14 15:52N 34°40' E 135°14'0 0.0
2018-Jul-14 15:30N 34°40' E 135°14'0 0.0
2018-Jul-14 14:57N 34°40' E 135°14'0 0.0
2018-Jul-14 14:27N 34°40' E 135°14'0 0.0
2018-Jul-14 13:27N 34°40' E 135°14'0 0.0
2018-Jul-14 12:57N 34°40' E 135°14'0 0.0
2018-Jul-14 12:30N 34°40' E 135°14'0 0.0
2018-Jul-14 11:57N 34°40' E 135°14'0 0.0
2018-Jul-14 11:27N 34°40' E 135°14'0 0.0
2018-Jul-14 10:54N 34°40' E 135°14'0 0.0
2018-Jul-14 10:27N 34°40' E 135°14'0 0.0
2018-Jul-14 09:57N 34°40' E 135°14'0 0.0
2018-Jul-14 09:27N 34°40' E 135°14'0 0.0
2018-Jul-14 08:57N 34°40' E 135°14'0 0.0
2018-Jul-14 08:27N 34°40' E 135°14'0 0.0
2018-Jul-14 08:00N 34°40' E 135°14'2 3.9
2018-Jul-14 07:30N 34°39' E 135°16'5 9.8
2018-Jul-14 07:00N 34°37' E 135°21'3 5.3
2018-Jul-14 06:29N 34°39' E 135°24'0 0.0
2018-Jul-14 05:55N 34°39' E 135°24'0 0.0
2018-Jul-14 05:25N 34°39' E 135°24'0 0.0
2018-Jul-14 04:55N 34°39' E 135°24'0 0.0
2018-Jul-14 04:28N 34°39' E 135°24'0 0.0
2018-Jul-14 03:55N 34°39' E 135°24'0 0.0
2018-Jul-14 03:25N 34°39' E 135°24'0 0.0
2018-Jul-14 02:58N 34°39' E 135°24'0 0.0
2018-Jul-14 02:25N 34°39' E 135°24'0 0.0
2018-Jul-14 01:55N 34°39' E 135°24'0 0.0
2018-Jul-14 01:28N 34°39' E 135°24'0 0.6
2018-Jul-14 01:00N 34°39' E 135°24'4 8.5
2018-Jul-14 00:31N 34°36' E 135°20'714.5
2018-Jul-14 00:00N 34°31' E 135°13'815.1
2018-Jul-13 23:30N 34°26' E 135°07'815.8
2018-Jul-13 23:00N 34°20' E 135°01'815.6
2018-Jul-13 22:30N 34°12' E 134°60'612.0
2018-Jul-13 22:00N 34°06' E 134°60'612.2
2018-Jul-13 21:30N 34°00' E 135°00'612.3
2018-Jul-13 21:01N 33°54' E 135°00'713.5
2018-Jul-13 20:31N 33°47' E 135°01'713.9
2018-Jul-13 20:01N 33°42' E 135°07'612.8
2018-Jul-13 19:31N 33°37' E 135°12'222 4.9
2018-Jul-11 22:15N 34°54' E 139°23'413.5
2018-Jul-11 21:59N 34°56' E 139°27'714.0
2018-Jul-11 21:30N 35°00' E 139°34'714.7
2018-Jul-11 21:00N 35°05' E 139°40'714.6
2018-Jul-11 20:30N 35°11' E 139°46'511.1
2018-Jul-11 20:00N 35°17' E 139°45'612.1
2018-Jul-11 19:30N 35°22' E 139°42'5 9.1
2018-Jul-11 19:01N 35°27' E 139°41'0 0.9
2018-Jul-11 18:29N 35°26' E 139°41'0 0.0
2018-Jul-11 17:59N 35°26' E 139°41'0 0.0
2018-Jul-11 17:23N 35°26' E 139°41'0 0.0
2018-Jul-11 16:59N 35°26' E 139°41'0 0.0
2018-Jul-11 16:29N 35°26' E 139°41'0 0.0
2018-Jul-11 15:59N 35°26' E 139°41'0 0.0
2018-Jul-11 15:29N 35°26' E 139°41'0 0.0
2018-Jul-11 14:59N 35°26' E 139°41'0 0.0
2018-Jul-11 14:29N 35°26' E 139°41'0 0.0
2018-Jul-11 13:58N 35°26' E 139°41'0 0.0
2018-Jul-11 13:28N 35°26' E 139°41'0 0.0
2018-Jul-11 12:58N 35°26' E 139°41'0 0.0
2018-Jul-11 12:28N 35°26' E 139°41'1 1.5
2018-Jul-11 12:01N 35°27' E 139°41'3 5.6
2018-Jul-11 11:31N 35°26' E 139°44'510.6
2018-Jul-11 11:00N 35°29' E 139°50'611.1
2018-Jul-11 10:31N 35°34' E 139°49'4 7.5
2018-Jul-11 10:00N 35°37' E 139°46'0 0.0
2018-Jul-11 08:12N 35°37' E 139°46'0 0.1
2018-Jul-11 07:57N 35°37' E 139°46'0 0.0
2018-Jul-11 07:12N 35°37' E 139°46'0 0.0
2018-Jul-11 06:57N 35°37' E 139°46'0 0.0
2018-Jul-11 05:27N 35°37' E 139°46'0 0.0
2018-Jul-11 04:39N 35°37' E 139°46'0 0.0
2018-Jul-11 04:21N 35°37' E 139°46'0 0.0
2018-Jul-11 04:00N 35°37' E 139°46'0 0.0
2018-Jul-11 01:57N 35°37' E 139°46'0 0.0
2018-Jul-11 01:21N 35°37' E 139°46'0 0.0
2018-Jul-11 00:51N 35°37' E 139°46'0 0.0
2018-Jul-10 22:56N 35°37' E 139°46'2 3.6
2018-Jul-10 22:25N 35°36' E 139°47'4 9.5
2018-Jul-10 22:00N 35°33' E 139°51'5 9.4
2018-Jul-10 21:30N 35°29' E 139°51'713.5
2018-Jul-10 21:00N 35°23' E 139°46'612.2
2018-Jul-10 20:30N 35°17' E 139°45'612.4
2018-Jul-10 20:01N 35°11' E 139°47'5 9.7
2018-Jul-10 19:30N 35°06' E 139°46'510.4
2018-Jul-10 19:00N 35°02' E 139°42'510.1
2018-Jul-10 18:30N 34°59' E 139°37'510.4
2018-Jul-10 18:00N 34°56' E 139°32'4 8.2
2018-Jul-10 17:30N 34°54' E 139°28'813.5
2018-Jul-10 16:55N 34°49' E 139°20'  

Dump ship's entire track history